createdAt,value
2022-10-09T00:00:49.203Z,7.04
2022-10-09T00:03:15.715Z,7.08
2022-10-09T00:05:42.123Z,7.13
2022-10-09T00:08:08.469Z,7.11
2022-10-09T00:10:39.862Z,7.06
2022-10-09T00:13:06.469Z,7.09
2022-10-09T00:15:32.804Z,7.11
2022-10-09T00:17:59.110Z,7.08
2022-10-09T00:20:25.413Z,6.94
2022-10-09T00:22:51.739Z,6.88
2022-10-09T00:25:18.058Z,6.92
2022-10-09T00:27:45.670Z,6.88
2022-10-09T00:30:12.284Z,6.87
2022-10-09T00:32:38.574Z,6.82
2022-10-09T00:35:05.258Z,6.81
2022-10-09T00:37:31.579Z,6.86
2022-10-09T00:39:57.868Z,6.93
2022-10-09T00:42:24.157Z,6.96
2022-10-09T00:44:53.530Z,6.94
2022-10-09T00:47:23.156Z,6.89
2022-10-09T00:49:50.877Z,6.83
2022-10-09T00:52:17.420Z,6.78
2022-10-09T00:54:43.905Z,6.69
2022-10-09T00:57:10.325Z,6.74
2022-10-09T00:59:37.392Z,6.80
2022-10-09T01:02:05.117Z,6.85
2022-10-09T01:04:31.511Z,6.85
2022-10-09T01:07:05.396Z,6.84
2022-10-09T01:09:38.136Z,6.85
2022-10-09T01:12:10.791Z,6.85
2022-10-09T01:14:39.289Z,6.80
2022-10-09T01:17:13.778Z,6.69
2022-10-09T01:19:56.558Z,6.69
2022-10-09T01:22:30.710Z,6.70
2022-10-09T01:25:01.505Z,6.72
2022-10-09T01:27:30.356Z,6.57
2022-10-09T01:29:58.456Z,6.48
2022-10-09T01:32:26.681Z,6.45
2022-10-09T01:34:53.515Z,6.48
2022-10-09T01:37:21.136Z,6.51
2022-10-09T01:39:48.561Z,6.54
2022-10-09T01:42:15.533Z,6.56
2022-10-09T01:44:43.159Z,6.58
2022-10-09T01:47:10.352Z,6.63
2022-10-09T01:49:39.461Z,6.64
2022-10-09T01:52:08.520Z,6.67
2022-10-09T01:54:37.327Z,6.65
2022-10-09T01:57:05.239Z,6.67
2022-10-09T01:59:36.436Z,6.66
2022-10-09T02:02:05.168Z,6.63
2022-10-09T02:04:31.986Z,6.60
2022-10-09T02:06:58.289Z,6.60
2022-10-09T02:09:25.245Z,6.57
2022-10-09T02:11:54.188Z,6.57
2022-10-09T02:14:20.514Z,6.57
2022-10-09T02:16:49.116Z,6.58
2022-10-09T02:19:19.602Z,6.57
2022-10-09T02:21:51.353Z,6.57
2022-10-09T02:24:21.714Z,6.57
2022-10-09T02:26:48.233Z,6.52
2022-10-09T02:29:14.846Z,6.42
2022-10-09T02:31:42.349Z,6.40
2022-10-09T02:34:09.772Z,6.39
2022-10-09T02:36:38.174Z,6.34
2022-10-09T02:39:05.165Z,6.29
2022-10-09T02:41:31.426Z,6.21
2022-10-09T02:43:57.810Z,6.08
2022-10-09T02:46:24.589Z,6.01
2022-10-09T02:48:51.041Z,6.00
2022-10-09T02:51:17.566Z,6.01
2022-10-09T02:53:45.657Z,5.99
2022-10-09T02:56:12.197Z,5.97
2022-10-09T02:58:38.499Z,5.91
2022-10-09T03:01:04.877Z,5.82
2022-10-09T03:03:31.478Z,5.83
2022-10-09T03:06:00.761Z,5.81
2022-10-09T03:08:27.053Z,5.80
2022-10-09T03:10:54.684Z,5.74
2022-10-09T03:13:20.971Z,5.70
2022-10-09T03:15:47.305Z,5.67
2022-10-09T03:18:13.628Z,5.67
2022-10-09T03:20:39.941Z,5.63
2022-10-09T03:23:06.255Z,5.64
2022-10-09T03:25:32.541Z,5.57
2022-10-09T03:28:00.184Z,5.51
2022-10-09T03:30:26.459Z,5.56
2022-10-09T03:32:52.749Z,5.63
2022-10-09T03:35:19.085Z,5.69
2022-10-09T03:37:45.347Z,5.75
2022-10-09T03:40:11.642Z,5.79
2022-10-09T03:42:38.081Z,5.83
2022-10-09T03:45:06.215Z,5.75
2022-10-09T03:47:32.523Z,5.65
2022-10-09T03:49:58.820Z,5.60
2022-10-09T03:52:25.157Z,5.67
2022-10-09T03:54:51.491Z,5.62
2022-10-09T03:57:17.790Z,5.67
2022-10-09T03:59:44.097Z,5.73
2022-10-09T04:02:11.767Z,5.66
2022-10-09T04:04:38.109Z,5.57
2022-10-09T04:07:04.407Z,5.48
2022-10-09T04:09:30.724Z,5.51
2022-10-09T04:11:56.996Z,5.54
2022-10-09T04:14:23.372Z,5.47
2022-10-09T04:16:49.635Z,5.40
2022-10-09T04:19:17.273Z,5.34
2022-10-09T04:21:43.578Z,5.34
2022-10-09T04:24:09.834Z,5.42
2022-10-09T04:26:36.352Z,5.50
2022-10-09T04:29:02.656Z,5.50
2022-10-09T04:31:28.975Z,5.52
2022-10-09T04:33:55.363Z,5.57
2022-10-09T04:36:23.003Z,5.56
2022-10-09T04:38:49.291Z,5.48
2022-10-09T04:41:15.608Z,5.49
2022-10-09T04:43:41.880Z,5.55
2022-10-09T04:46:10.330Z,5.58
2022-10-09T04:48:40.407Z,5.60
2022-10-09T04:51:07.234Z,5.63
2022-10-09T04:53:35.440Z,5.66
2022-10-09T04:56:02.163Z,5.67
2022-10-09T04:58:28.453Z,5.68
2022-10-09T05:00:54.747Z,5.63
2022-10-09T05:03:21.040Z,5.51
2022-10-09T05:05:47.338Z,5.42
2022-10-09T05:08:13.700Z,5.35
2022-10-09T05:10:41.305Z,5.29
2022-10-09T05:13:07.565Z,5.27
2022-10-09T05:15:35.995Z,5.29
2022-10-09T05:18:02.303Z,5.30
2022-10-09T05:20:28.594Z,5.30
2022-10-09T05:22:54.866Z,5.29
2022-10-09T05:25:21.164Z,5.32
2022-10-09T05:27:48.802Z,5.35
2022-10-09T05:30:15.173Z,5.39
2022-10-09T05:32:41.462Z,5.42
2022-10-09T05:35:08.097Z,5.42
2022-10-09T05:37:34.391Z,5.39
2022-10-09T05:40:00.671Z,5.37
2022-10-09T05:42:26.977Z,5.36
2022-10-09T05:44:54.599Z,5.34
2022-10-09T05:47:21.018Z,5.31
2022-10-09T05:49:47.307Z,5.31
2022-10-09T05:52:13.612Z,5.31
2022-10-09T05:54:39.914Z,5.26
2022-10-09T05:57:06.383Z,5.27
2022-10-09T05:59:32.668Z,5.33
2022-10-09T06:02:00.417Z,5.35
2022-10-09T06:04:26.783Z,5.36
2022-10-09T06:06:53.657Z,5.41
2022-10-09T06:09:21.073Z,5.42
2022-10-09T06:11:47.370Z,5.42
2022-10-09T06:14:13.707Z,5.44
2022-10-09T06:16:41.060Z,5.44
2022-10-09T06:19:10.969Z,5.48
2022-10-09T06:21:37.228Z,5.52
2022-10-09T06:24:04.537Z,5.54
2022-10-09T06:26:31.515Z,5.58
2022-10-09T06:28:58.329Z,5.63
2022-10-09T06:31:25.385Z,5.67
2022-10-09T06:33:52.264Z,5.72
2022-10-09T06:36:20.622Z,5.77
2022-10-09T06:38:48.156Z,5.81
2022-10-09T06:41:15.194Z,5.83
2022-10-09T06:43:41.877Z,5.89
2022-10-09T06:46:09.683Z,5.92
2022-10-09T06:48:36.800Z,5.94
2022-10-09T06:51:03.675Z,6.00
2022-10-09T06:53:33.962Z,6.03
2022-10-09T06:56:00.260Z,6.06
2022-10-09T06:58:27.470Z,6.09
2022-10-09T07:01:01.768Z,6.16
2022-10-09T07:03:28.059Z,6.21
2022-10-09T07:05:54.337Z,6.28
2022-10-09T07:08:20.699Z,6.33
2022-10-09T07:10:48.306Z,6.38
2022-10-09T07:13:14.575Z,6.45
2022-10-09T07:15:44.469Z,6.54
2022-10-09T07:18:10.739Z,6.61
2022-10-09T07:20:37.015Z,6.68
2022-10-09T07:23:03.285Z,6.75
2022-10-09T07:25:29.649Z,6.83
2022-10-09T07:27:57.386Z,6.93
2022-10-09T07:30:23.672Z,6.98
2022-10-09T07:32:51.570Z,7.03
2022-10-09T07:35:18.086Z,7.11
2022-10-09T07:37:44.368Z,7.21
2022-10-09T07:40:10.665Z,7.28
2022-10-09T07:42:36.978Z,7.32
2022-10-09T07:45:05.144Z,7.36
2022-10-09T07:47:31.409Z,7.41
2022-10-09T07:49:57.685Z,7.51
2022-10-09T07:52:23.959Z,7.61
2022-10-09T07:54:50.227Z,7.72
2022-10-09T07:57:16.534Z,7.84
2022-10-09T07:59:42.814Z,7.94
2022-10-09T08:02:10.537Z,8.02
2022-10-09T08:04:37.323Z,8.11
2022-10-09T08:07:03.622Z,8.22
2022-10-09T08:09:29.950Z,8.33
2022-10-09T08:11:56.228Z,8.50
2022-10-09T08:14:22.487Z,8.65
2022-10-09T08:16:48.847Z,8.77
2022-10-09T08:19:16.524Z,8.86
2022-10-09T08:21:42.821Z,8.95
2022-10-09T08:24:10.114Z,9.09
2022-10-09T08:26:36.411Z,9.19
2022-10-09T08:29:03.705Z,9.37
2022-10-09T08:31:30.107Z,9.53
2022-10-09T08:33:57.265Z,9.65
2022-10-09T08:36:25.118Z,9.78
2022-10-09T08:38:51.563Z,9.95
2022-10-09T08:41:27.285Z,10.12
2022-10-09T08:43:56.025Z,10.24
2022-10-09T08:46:23.832Z,10.33
2022-10-09T08:48:51.233Z,10.47
2022-10-09T08:51:20.628Z,10.60
2022-10-09T08:53:50.159Z,10.74
2022-10-09T08:56:16.745Z,10.92
2022-10-09T08:58:43.866Z,11.02
2022-10-09T09:01:16.740Z,11.18
2022-10-09T09:03:53.405Z,11.32
2022-10-09T09:06:24.977Z,11.41
2022-10-09T09:08:55.473Z,11.46
2022-10-09T09:11:25.775Z,11.56
2022-10-09T09:13:57.211Z,11.62
2022-10-09T09:16:28.363Z,11.81
2022-10-09T09:19:02.738Z,11.97
2022-10-09T09:21:35.851Z,12.10
2022-10-09T09:24:10.957Z,12.21
2022-10-09T09:26:37.469Z,12.26
2022-10-09T09:29:04.827Z,12.31
2022-10-09T09:31:34.669Z,12.42
2022-10-09T09:34:03.837Z,12.48
2022-10-09T09:36:33.154Z,12.56
2022-10-09T09:41:47.144Z,12.87
2022-10-09T09:44:14.936Z,12.97
2022-10-09T09:46:41.570Z,13.02
2022-10-09T09:49:18.212Z,13.07
2022-10-09T09:51:44.730Z,13.17
2022-10-09T09:54:16.038Z,13.26
2022-10-09T09:57:10.288Z,13.35
2022-10-09T09:59:33.453Z,13.42
2022-10-09T10:02:00.478Z,13.48
2022-10-09T10:04:26.955Z,13.52
2022-10-09T10:06:53.298Z,13.56
2022-10-09T10:09:19.719Z,13.67
2022-10-09T10:11:47.527Z,13.75
2022-10-09T10:14:14.612Z,13.82
2022-10-09T10:16:42.897Z,13.94
2022-10-09T10:19:18.801Z,14.08
2022-10-09T10:21:47.369Z,14.19
2022-10-09T10:24:15.161Z,14.30
2022-10-09T10:26:43.186Z,14.35
2022-10-09T10:29:11.557Z,14.43
2022-10-09T10:31:46.041Z,14.44
2022-10-09T10:34:16.748Z,14.45
2022-10-09T10:36:43.388Z,14.51
2022-10-09T10:39:12.952Z,14.51
2022-10-09T10:41:41.975Z,14.50
2022-10-09T10:44:13.734Z,14.59
2022-10-09T10:46:44.295Z,14.65
2022-10-09T10:49:14.072Z,14.64
2022-10-09T10:51:47.422Z,14.67
2022-10-09T10:54:20.485Z,14.70
2022-10-09T10:56:48.499Z,14.72
2022-10-09T10:59:28.918Z,14.68
2022-10-09T11:02:01.016Z,14.65
2022-10-09T11:04:35.532Z,14.55
2022-10-09T11:07:06.957Z,14.53
2022-10-09T11:09:39.143Z,14.51
2022-10-09T11:12:19.597Z,14.49
2022-10-09T11:14:54.219Z,14.51
2022-10-09T11:17:27.055Z,14.56
2022-10-09T11:20:03.273Z,14.51
2022-10-09T11:22:36.612Z,14.51
2022-10-09T11:25:09.320Z,14.49
2022-10-09T11:27:38.847Z,14.55
2022-10-09T11:30:08.980Z,14.55
2022-10-09T11:32:38.783Z,14.60
2022-10-09T11:35:12.554Z,14.66
2022-10-09T11:37:40.799Z,14.70
2022-10-09T11:40:13.480Z,14.67
2022-10-09T11:42:40.238Z,14.69
2022-10-09T11:45:14.693Z,14.68
2022-10-09T11:47:44.665Z,14.69
2022-10-09T11:50:18.245Z,14.69
2022-10-09T11:52:47.703Z,14.74
2022-10-09T11:55:18.439Z,14.78
2022-10-09T11:57:44.769Z,14.77
2022-10-09T12:00:11.608Z,14.82
2022-10-09T12:02:38.189Z,14.90
2022-10-09T12:05:16.994Z,14.93
2022-10-09T12:07:43.333Z,14.98
2022-10-09T12:10:21.298Z,15.17
2022-10-09T12:12:55.214Z,15.27
2022-10-09T12:15:24.125Z,15.30
2022-10-09T12:17:50.434Z,15.37
2022-10-09T12:20:19.554Z,15.50
2022-10-09T12:23:01.450Z,15.57
2022-10-09T12:25:40.569Z,15.68
2022-10-09T12:28:16.071Z,15.77
2022-10-09T12:30:47.819Z,15.85
2022-10-09T12:33:18.677Z,15.86
2022-10-09T12:35:46.886Z,15.89
2022-10-09T12:38:16.888Z,15.88
2022-10-09T12:40:45.484Z,15.83
2022-10-09T12:43:16.934Z,15.71
2022-10-09T12:45:44.270Z,15.71
2022-10-09T12:48:11.460Z,15.70
2022-10-09T12:50:38.007Z,15.65
2022-10-09T12:53:06.934Z,15.60
2022-10-09T12:55:34.887Z,15.58
2022-10-09T12:58:02.950Z,15.52
2022-10-09T13:00:29.755Z,15.54
2022-10-09T13:02:56.561Z,15.54
2022-10-09T13:05:22.969Z,15.62
2022-10-09T13:07:54.077Z,15.63
2022-10-09T13:10:23.647Z,15.67
2022-10-09T13:12:51.657Z,15.69
2022-10-09T13:15:29.311Z,15.65
2022-10-09T13:17:55.605Z,15.58
2022-10-09T13:20:24.220Z,15.54
2022-10-09T13:22:53.576Z,15.53
2022-10-09T13:25:19.864Z,15.55
2022-10-09T13:27:47.864Z,15.55
2022-10-09T13:30:14.401Z,15.57
2022-10-09T13:32:40.686Z,15.60
2022-10-09T13:35:07.235Z,15.59
2022-10-09T13:37:33.518Z,15.62
2022-10-09T13:40:00.155Z,15.64
2022-10-09T13:42:27.521Z,15.67
2022-10-09T13:44:55.303Z,15.72
2022-10-09T13:47:24.427Z,15.68
2022-10-09T13:49:51.172Z,15.62
2022-10-09T13:52:17.478Z,15.60
2022-10-09T13:54:43.773Z,15.52
2022-10-09T13:57:10.067Z,15.46
2022-10-09T13:59:36.391Z,15.50
2022-10-09T14:02:04.113Z,15.58
2022-10-09T14:04:30.405Z,15.52
2022-10-09T14:06:56.814Z,15.52
2022-10-09T14:09:23.232Z,15.48
2022-10-09T14:11:49.651Z,15.48
2022-10-09T14:14:15.964Z,15.48
2022-10-09T14:16:42.285Z,15.51
2022-10-09T14:19:10.676Z,15.52
2022-10-09T14:21:37.072Z,15.49
2022-10-09T14:24:03.554Z,15.44
2022-10-09T14:26:30.052Z,15.46
2022-10-09T14:28:58.618Z,15.45
2022-10-09T14:31:25.073Z,15.44
2022-10-09T14:33:55.247Z,15.40
2022-10-09T14:36:23.260Z,15.41
2022-10-09T14:38:49.724Z,15.49
2022-10-09T14:41:16.557Z,15.55
2022-10-09T14:43:42.893Z,15.55
2022-10-09T14:46:10.701Z,15.57
2022-10-09T14:48:37.019Z,15.62
2022-10-09T14:51:04.006Z,15.68
2022-10-09T14:53:31.981Z,15.78
2022-10-09T14:55:59.637Z,15.88
2022-10-09T14:58:27.361Z,15.83
2022-10-09T15:00:53.647Z,15.77
2022-10-09T15:03:19.953Z,15.74
2022-10-09T15:05:46.219Z,15.74
2022-10-09T15:08:12.642Z,15.78
2022-10-09T15:10:40.908Z,15.78
2022-10-09T15:13:07.217Z,15.75
2022-10-09T15:15:33.529Z,15.76
2022-10-09T15:17:59.823Z,15.79
2022-10-09T15:20:26.125Z,15.74
2022-10-09T15:22:52.461Z,15.67
2022-10-09T15:25:18.754Z,15.62
2022-10-09T15:27:49.188Z,15.62
2022-10-09T15:30:17.657Z,15.59
2022-10-09T15:32:43.954Z,15.56
2022-10-09T15:35:10.229Z,15.55
2022-10-09T15:37:36.551Z,15.54
2022-10-09T15:40:02.857Z,15.57
2022-10-09T15:42:29.149Z,15.64
2022-10-09T15:44:56.839Z,15.68
2022-10-09T15:47:39.342Z,15.63
2022-10-09T15:50:10.001Z,15.56
2022-10-09T15:52:36.398Z,15.54
2022-10-09T15:55:02.696Z,15.53
2022-10-09T15:57:28.996Z,15.51
2022-10-09T15:59:56.599Z,15.50
2022-10-09T16:02:22.897Z,15.66
2022-10-09T16:04:49.204Z,15.71
2022-10-09T16:07:15.501Z,15.55
2022-10-09T16:09:41.802Z,15.36
2022-10-09T16:12:08.065Z,15.21
2022-10-09T16:14:34.419Z,15.08
2022-10-09T16:17:02.044Z,15.08
2022-10-09T16:19:28.316Z,15.13
2022-10-09T16:21:56.395Z,15.19
2022-10-09T16:24:22.677Z,15.15
2022-10-09T16:26:49.046Z,15.05
2022-10-09T16:29:15.398Z,14.92
2022-10-09T16:31:41.714Z,14.74
2022-10-09T16:34:09.398Z,14.62
2022-10-09T16:36:35.720Z,14.48
2022-10-09T16:39:02.042Z,14.43
2022-10-09T16:41:28.353Z,14.33
2022-10-09T16:43:56.034Z,14.26
2022-10-09T16:46:23.695Z,14.14
2022-10-09T16:48:51.198Z,14.11
2022-10-09T16:51:19.829Z,14.02
2022-10-09T16:53:48.597Z,13.97
2022-10-09T16:56:16.295Z,13.82
2022-10-09T16:58:43.478Z,13.76
2022-10-09T17:01:10.640Z,13.67
2022-10-09T17:03:37.284Z,13.63
2022-10-09T17:06:06.341Z,13.54
2022-10-09T17:08:34.063Z,13.53
2022-10-09T17:11:00.356Z,13.44
2022-10-09T17:13:26.638Z,13.41
2022-10-09T17:15:52.944Z,13.34
2022-10-09T17:18:19.220Z,13.31
2022-10-09T17:20:45.514Z,13.25
2022-10-09T17:23:11.817Z,13.13
2022-10-09T17:25:39.855Z,13.20
2022-10-09T17:28:08.078Z,13.16
2022-10-09T17:30:37.404Z,13.15
2022-10-09T17:33:03.891Z,13.12
2022-10-09T17:35:30.202Z,13.08
2022-10-09T17:37:56.498Z,13.03
2022-10-09T17:40:23.018Z,13.00
2022-10-09T17:42:50.955Z,12.93
2022-10-09T17:45:17.425Z,12.94
2022-10-09T17:47:43.715Z,12.97
2022-10-09T17:50:10.030Z,12.97
2022-10-09T17:52:36.303Z,12.98
2022-10-09T17:55:02.642Z,12.99
2022-10-09T17:57:28.996Z,12.99
2022-10-09T17:59:56.655Z,12.94
2022-10-09T18:02:22.954Z,12.96
2022-10-09T18:04:49.296Z,12.93
2022-10-09T18:07:15.569Z,12.90
2022-10-09T18:09:41.878Z,12.85
2022-10-09T18:12:08.191Z,12.87
2022-10-09T18:14:34.537Z,12.74
2022-10-09T18:17:02.145Z,12.72
2022-10-09T18:19:28.447Z,12.66
2022-10-09T18:21:54.728Z,12.69
2022-10-09T18:24:21.039Z,12.65
2022-10-09T18:26:47.330Z,12.59
2022-10-09T18:29:13.678Z,12.58
2022-10-09T18:31:40.032Z,12.56
2022-10-09T18:34:07.748Z,12.58
2022-10-09T18:36:34.073Z,12.50
2022-10-09T18:39:01.618Z,12.47
2022-10-09T18:41:28.031Z,12.41
2022-10-09T18:43:54.677Z,12.35
2022-10-09T18:46:22.577Z,12.36
2022-10-09T18:48:49.821Z,12.35
2022-10-09T18:51:19.941Z,12.29
2022-10-09T18:53:48.513Z,12.30
2022-10-09T18:56:16.791Z,12.26
2022-10-09T18:58:43.515Z,12.20
2022-10-09T19:01:09.876Z,12.16
2022-10-09T19:03:36.197Z,12.07
2022-10-09T19:06:02.548Z,11.99
2022-10-09T19:08:30.194Z,12.00
2022-10-09T19:10:56.459Z,11.92
2022-10-09T19:13:22.762Z,11.90
2022-10-09T19:15:52.291Z,11.88
2022-10-09T19:18:18.590Z,11.84
2022-10-09T19:20:44.919Z,11.82
2022-10-09T19:23:11.210Z,11.80
2022-10-09T19:25:44.773Z,11.76
2022-10-09T19:28:11.120Z,11.71
2022-10-09T19:30:38.716Z,11.65
2022-10-09T19:33:05.006Z,11.61
2022-10-09T19:35:31.284Z,11.60
2022-10-09T19:37:57.563Z,11.59
2022-10-09T19:40:23.871Z,11.56
2022-10-09T19:42:51.530Z,11.51
2022-10-09T19:45:17.824Z,11.49
2022-10-09T19:47:44.150Z,11.45
2022-10-09T19:50:10.441Z,11.43
2022-10-09T19:52:36.750Z,11.39
2022-10-09T19:55:03.136Z,11.34
2022-10-09T19:57:29.452Z,11.32
2022-10-09T19:59:57.084Z,11.30
2022-10-09T20:02:23.382Z,11.28
2022-10-09T20:04:49.743Z,11.25
2022-10-09T20:07:16.018Z,11.24
2022-10-09T20:09:42.338Z,11.22
2022-10-09T20:12:08.641Z,11.19
2022-10-09T20:14:34.935Z,11.16
2022-10-09T20:17:02.608Z,11.14
2022-10-09T20:19:28.890Z,11.11
2022-10-09T20:21:55.196Z,11.08
2022-10-09T20:24:21.497Z,11.07
2022-10-09T20:26:47.781Z,11.05
2022-10-09T20:29:14.087Z,11.01
2022-10-09T20:31:40.576Z,10.99
2022-10-09T20:34:08.197Z,10.95
2022-10-09T20:36:35.746Z,10.94
2022-10-09T20:39:03.799Z,10.92
2022-10-09T20:41:30.757Z,10.91
2022-10-09T20:43:58.065Z,10.86
2022-10-09T20:46:24.747Z,10.83
2022-10-09T20:48:51.621Z,10.82
2022-10-09T20:51:20.045Z,10.80
2022-10-09T20:53:46.757Z,10.78
2022-10-09T20:56:14.018Z,10.76
2022-10-09T20:58:40.669Z,10.73
2022-10-09T21:01:08.230Z,10.73
2022-10-09T21:03:35.254Z,10.71
2022-10-09T21:06:02.077Z,10.69
2022-10-09T21:08:29.715Z,10.67
2022-10-09T21:10:56.068Z,10.65
2022-10-09T21:13:22.354Z,10.63
2022-10-09T21:15:49.322Z,10.61
2022-10-09T21:18:16.874Z,10.59
2022-10-09T21:20:44.093Z,10.57
2022-10-09T21:23:11.602Z,10.53
2022-10-09T21:25:39.413Z,10.52
2022-10-09T21:28:05.778Z,10.49
2022-10-09T21:30:41.049Z,10.48
2022-10-09T21:33:07.977Z,10.47
2022-10-09T21:35:38.086Z,10.46
2022-10-09T21:38:04.368Z,10.46
2022-10-09T21:40:30.657Z,10.45
2022-10-09T21:42:58.297Z,10.44
2022-10-09T21:45:24.580Z,10.42
2022-10-09T21:47:50.865Z,10.39
2022-10-09T21:50:17.240Z,10.40
2022-10-09T21:52:43.575Z,10.37
2022-10-09T21:55:09.860Z,10.36
2022-10-09T21:57:36.167Z,10.34
2022-10-09T22:00:04.212Z,10.33
2022-10-09T22:02:30.531Z,10.32
2022-10-09T22:04:56.808Z,10.30
2022-10-09T22:07:23.245Z,10.30
2022-10-09T22:09:49.521Z,10.28
2022-10-09T22:12:15.776Z,10.28
2022-10-09T22:14:43.785Z,10.27
2022-10-09T22:17:11.426Z,10.25
2022-10-09T22:19:37.734Z,10.21
2022-10-09T22:22:04.049Z,10.21
2022-10-09T22:24:30.514Z,10.16
2022-10-09T22:26:57.153Z,10.16
2022-10-09T22:29:23.700Z,10.13
2022-10-09T22:31:49.996Z,10.12
2022-10-09T22:34:18.031Z,10.12
2022-10-09T22:36:44.352Z,10.10
2022-10-09T22:39:11.158Z,10.08
2022-10-09T22:41:37.894Z,10.08
2022-10-09T22:44:05.146Z,10.06
2022-10-09T22:46:32.548Z,10.04
2022-10-09T22:48:59.187Z,10.01
2022-10-09T22:51:28.147Z,10.00
2022-10-09T22:53:54.658Z,9.97
2022-10-09T22:56:22.029Z,9.95
2022-10-09T22:58:49.060Z,9.93
2022-10-09T23:01:23.017Z,9.91
2022-10-09T23:03:49.333Z,9.91
2022-10-09T23:06:16.622Z,9.90
2022-10-09T23:08:45.824Z,9.86
2022-10-09T23:11:12.721Z,9.84
2022-10-09T23:13:39.291Z,9.84
2022-10-09T23:16:06.653Z,9.82
2022-10-09T23:18:33.602Z,9.82
2022-10-09T23:21:02.180Z,9.79
2022-10-09T23:23:28.482Z,9.78
2022-10-09T23:25:56.107Z,9.76
2022-10-09T23:28:22.419Z,9.74
2022-10-09T23:30:48.727Z,9.73
2022-10-09T23:33:14.992Z,9.72
2022-10-09T23:35:41.773Z,9.69
2022-10-09T23:38:08.286Z,9.68
2022-10-09T23:40:34.696Z,9.66
2022-10-09T23:43:02.362Z,9.64
2022-10-09T23:45:28.644Z,9.63
2022-10-09T23:47:54.940Z,9.61
2022-10-09T23:50:21.237Z,9.60
2022-10-09T23:52:47.771Z,9.58
2022-10-09T23:55:14.536Z,9.55
2022-10-09T23:57:40.804Z,9.53
